Kezdőlap
METAR-TAF:

METAR-TAF

Repülőterek :

Harrisburg, Pennsylvania, Amerikai Egyesült Államok

földrajzi szélesség: 40-13-02N, földrajzi hosszúság: 076-51-05W, magasság: 106 m

Jelenlegi meteorológiai megfigyelések

A jelentés 25 perccel ezelõtt készült, 15:56 UTC
Nyugat-északnyugati szél 9 kt
Hőmérséklet 16°C
Páratartalom 36%
Légköri nyomás 1019 hPa
Látótávolság: 16.1 km
Szakadozott felhőzet 6500 lábon

METAR: KCXY 111556Z 29009KT 10SM BKN065 16/01 A3009 RMK AO2 SLP191 T01610011

Idő: 12:21 (16:21 UTC)


TAF: hiányzik

Meteorológiai megfigyelések és előrejelzések több, mint 4000 repülőtéren (METAR és TAF jelentéseket).

A térképen piros és sárga pontok jelzik az elérhető meteorológiai állomásokat.

Mozgassa az egeret a pont fölött, hogy megjelenjen az állomás neve.

Azután kattintson az időjárási megfigyelések és előrejelzések megtekintéséhez.

A térkép megváltoztatása: kattintson a fekete keresztel jelölt zöld gombra ráközelítéshez, a vonallal jelölt zöld gombra távolításhoz, vagy a zöld nyilakra a szomszédos térképek eléréséhez.


METAR-TAF: